createdAt,value
2022-10-22T07:45:50.525Z,100068.72
2022-10-22T07:48:23.122Z,100069.66
2022-10-22T07:50:55.609Z,100067.53
2022-10-22T07:53:30.332Z,100066.31
2022-10-22T07:55:59.922Z,100070.25
2022-10-22T07:58:29.133Z,100074.53
2022-10-22T08:01:01.694Z,100068.28
2022-10-22T08:03:31.096Z,100075.28
2022-10-22T08:06:01.293Z,100081.13
2022-10-22T08:08:31.320Z,100076.97
2022-10-22T08:11:02.349Z,100076.69
2022-10-22T08:13:32.060Z,100086.16
2022-10-22T08:16:03.341Z,100078.53
2022-10-22T08:18:33.879Z,100084.47
2022-10-22T08:21:03.627Z,100080.03
2022-10-22T08:23:34.784Z,100079.75
2022-10-22T08:26:04.448Z,100079.56
2022-10-22T08:28:37.232Z,100078.81
2022-10-22T08:31:09.735Z,100075.59
2022-10-22T08:33:41.400Z,100078.84
2022-10-22T08:36:20.458Z,100079.44
2022-10-22T08:38:50.991Z,100086.28
2022-10-22T08:41:25.587Z,100078.81
2022-10-22T08:44:30.388Z,100082.63
2022-10-22T08:47:27.189Z,100079.44
2022-10-22T08:50:02.724Z,100078.34
2022-10-22T08:52:34.965Z,100082.63
2022-10-22T08:55:15.738Z,100082.16
2022-10-22T08:57:55.997Z,100079.13
2022-10-22T09:00:33.394Z,100077.91
2022-10-22T09:03:33.158Z,100083.84
2022-10-22T09:06:10.184Z,100078.06
2022-10-22T09:08:46.231Z,100073.16
2022-10-22T09:11:36.339Z,100077.59
2022-10-22T09:14:09.056Z,100076.50
2022-10-22T09:17:04.597Z,100077.16
2022-10-22T09:20:29.410Z,100069.97
2022-10-22T09:24:16.117Z,100067.50
2022-10-22T09:27:30.677Z,100072.41
2022-10-22T09:30:26.131Z,100074.69
2022-10-22T09:34:00.219Z,100055.91
2022-10-22T09:36:34.039Z,100066.91
2022-10-22T09:39:04.507Z,100057.75
2022-10-22T09:41:35.004Z,100055.59
2022-10-22T09:44:09.060Z,100062.91
2022-10-22T09:46:44.128Z,100051.59
2022-10-22T09:49:18.943Z,100055.72
2022-10-22T09:51:58.145Z,100053.44
2022-10-22T09:54:41.619Z,100047.31
2022-10-22T09:57:18.359Z,100054.66
2022-10-22T09:59:50.889Z,100047.00
2022-10-22T10:02:37.390Z,100047.66
2022-10-22T10:05:09.982Z,100047.22
2022-10-22T10:07:42.694Z,100045.53
2022-10-22T10:10:21.509Z,100054.38
2022-10-22T10:12:58.682Z,100051.47
2022-10-22T10:15:36.740Z,100056.75
2022-10-22T10:18:20.067Z,100058.31
2022-10-22T10:20:59.108Z,100048.25
2022-10-22T10:23:37.835Z,100054.16
2022-10-22T10:26:22.890Z,100047.78
2022-10-22T10:29:16.195Z,100045.16
2022-10-22T10:31:58.935Z,100037.03
2022-10-22T10:34:41.694Z,100045.13
2022-10-22T10:37:23.607Z,100040.88
2022-10-22T10:40:20.568Z,100042.53
2022-10-22T10:43:05.200Z,100050.00
2022-10-22T10:45:59.358Z,100038.38
2022-10-22T10:48:49.371Z,100032.06
2022-10-22T10:51:47.470Z,100034.19
2022-10-22T10:54:30.643Z,100028.75
2022-10-22T10:57:22.146Z,100035.59
2022-10-22T11:00:07.978Z,100027.22
2022-10-22T11:03:09.271Z,100025.69
2022-10-22T11:05:44.315Z,100021.09
2022-10-22T11:08:21.071Z,100022.28
2022-10-22T11:11:02.619Z,100022.31
2022-10-22T11:13:38.696Z,100015.78
2022-10-22T11:16:18.781Z,100014.34
2022-10-22T11:19:00.140Z,100012.97
2022-10-22T11:21:35.912Z,100012.78
2022-10-22T11:24:18.437Z,100006.41
2022-10-22T11:26:52.065Z,100013.09
2022-10-22T11:29:35.948Z,100008.41
2022-10-22T11:32:31.642Z,100006.06
2022-10-22T11:35:04.650Z,100000.44
2022-10-22T11:37:40.123Z,100003.47
2022-10-22T11:40:19.285Z,100001.69
2022-10-22T11:42:55.046Z,100000.22
2022-10-22T11:45:33.071Z,99999.19
2022-10-22T11:48:17.473Z,100003.72
2022-10-22T11:50:53.353Z,99996.03
2022-10-22T11:53:32.991Z,99994.03
2022-10-22T11:56:26.794Z,99997.28
2022-10-22T11:58:57.703Z,100000.66
2022-10-22T12:01:33.354Z,99989.06
2022-10-22T12:04:23.824Z,99989.97
2022-10-22T12:06:59.779Z,99990.44
2022-10-22T12:09:32.951Z,99991.19
2022-10-22T12:12:15.832Z,99991.47
2022-10-22T12:15:04.035Z,99988.84
2022-10-22T12:17:37.855Z,99984.00
2022-10-22T12:20:14.473Z,99985.50
2022-10-22T12:22:46.685Z,99987.22
2022-10-22T12:25:24.278Z,99980.03
2022-10-22T12:27:57.385Z,99976.25
2022-10-22T12:30:32.200Z,99981.28
2022-10-22T12:33:06.538Z,99982.00
2022-10-22T12:35:43.783Z,99974.38
2022-10-22T12:38:18.494Z,99970.28
2022-10-22T12:40:50.385Z,99960.63
2022-10-22T12:43:21.323Z,99974.22
2022-10-22T12:45:53.105Z,99965.25
2022-10-22T12:48:26.491Z,99964.03
2022-10-22T12:50:57.871Z,99961.91
2022-10-22T12:53:31.075Z,99967.41
2022-10-22T12:56:06.914Z,99960.38
2022-10-22T12:58:41.255Z,99964.34
2022-10-22T13:01:13.020Z,99959.16
2022-10-22T13:03:46.120Z,99961.59
2022-10-22T13:06:25.173Z,99960.69
2022-10-22T13:09:04.944Z,99964.78
2022-10-22T13:11:36.219Z,99967.38
2022-10-22T13:14:06.863Z,99959.13
2022-10-22T13:19:25.627Z,99942.84
2022-10-22T13:21:55.410Z,99949.84
2022-10-22T13:24:27.307Z,99951.53
2022-10-22T13:26:58.587Z,99947.41
2022-10-22T13:29:43.610Z,99951.81
2022-10-22T13:32:31.449Z,99949.66
2022-10-22T13:35:04.604Z,99945.81
2022-10-22T13:37:35.815Z,99954.22
2022-10-22T13:40:12.930Z,99951.34
2022-10-22T13:42:46.789Z,99944.19
2022-10-22T13:45:17.368Z,99941.31
2022-10-22T13:47:51.775Z,99942.53
2022-10-22T13:50:23.597Z,99942.34
2022-10-22T13:52:56.058Z,99940.09
2022-10-22T13:55:31.333Z,99937.50
2022-10-22T13:58:09.453Z,99939.91
2022-10-22T14:01:20.042Z,99937.94
2022-10-22T14:04:24.188Z,99933.22
2022-10-22T14:06:56.766Z,99935.94
2022-10-22T14:09:28.259Z,99928.94
2022-10-22T14:11:57.885Z,99940.03
2022-10-22T14:14:27.410Z,99928.63
2022-10-22T14:16:56.962Z,99929.84
2022-10-22T14:19:26.326Z,99937.56
2022-10-22T14:21:57.321Z,99933.81
2022-10-22T14:24:26.589Z,99937.56
2022-10-22T14:26:55.845Z,99939.91
2022-10-22T14:29:25.248Z,99937.38
2022-10-22T14:31:54.545Z,99943.16
2022-10-22T14:34:23.984Z,99945.28
2022-10-22T14:36:53.498Z,99939.19
2022-10-22T14:39:24.495Z,99944.97
2022-10-22T14:41:54.098Z,99942.50
2022-10-22T14:44:24.339Z,99941.16
2022-10-22T14:46:56.342Z,99944.06
2022-10-22T14:49:25.937Z,99941.16
2022-10-22T14:51:56.321Z,99951.66
2022-10-22T14:54:27.171Z,99943.41
2022-10-22T14:56:56.770Z,99947.34
2022-10-22T14:59:26.163Z,99948.25
2022-10-22T15:01:55.641Z,99948.38
2022-10-22T15:04:26.107Z,99948.75
2022-10-22T15:06:56.839Z,99946.13
2022-10-22T15:09:35.671Z,99949.91
2022-10-22T15:12:05.853Z,99946.13
2022-10-22T15:14:35.241Z,99956.91
2022-10-22T15:17:12.957Z,99950.38
2022-10-22T15:19:52.301Z,99945.72
2022-10-22T15:22:22.118Z,99955.78
2022-10-22T15:24:54.229Z,99954.50
2022-10-22T15:27:25.481Z,99944.44
2022-10-22T15:29:57.279Z,99953.75
2022-10-22T15:32:30.082Z,99946.75
2022-10-22T15:35:21.007Z,99946.78
2022-10-22T15:37:53.312Z,99945.75
2022-10-22T15:40:26.919Z,99943.41
2022-10-22T15:42:57.228Z,99945.41
2022-10-22T15:45:27.081Z,99947.22
2022-10-22T15:48:02.430Z,99948.13
2022-10-22T15:50:32.206Z,99945.00
2022-10-22T15:53:06.636Z,99952.66
2022-10-22T15:55:38.013Z,99955.44
2022-10-22T19:58:22.096Z,99867.63
2022-10-22T20:00:56.427Z,99875.84
2022-10-22T20:03:26.105Z,99864.00
2022-10-22T20:05:56.061Z,99868.19
2022-10-22T20:08:25.416Z,99871.69
2022-10-22T20:10:54.758Z,99878.34
2022-10-22T20:13:25.566Z,99872.09
2022-10-22T20:15:55.573Z,99868.19
2022-10-22T20:18:25.103Z,99877.56
2022-10-22T20:20:54.547Z,99878.91
2022-10-22T20:23:23.950Z,99878.66
2022-10-22T20:25:53.278Z,99871.53
2022-10-22T20:28:22.843Z,99873.34
2022-10-22T20:30:53.608Z,99866.84
2022-10-22T20:33:23.126Z,99867.66
2022-10-22T20:36:00.843Z,99867.63
2022-10-22T20:38:30.849Z,99865.94
2022-10-22T20:41:06.217Z,99862.16
2022-10-22T20:43:36.216Z,99862.47
2022-10-22T20:46:18.034Z,99850.28
2022-10-22T20:48:47.881Z,99857.06
2022-10-22T20:51:17.748Z,99857.25
2022-10-22T20:53:47.605Z,99853.44
2022-10-22T20:56:17.374Z,99838.41
2022-10-22T20:58:49.310Z,99838.84
2022-10-22T21:01:24.178Z,99836.44
2022-10-22T21:03:54.566Z,99833.72
2022-10-22T21:06:24.034Z,99835.56
2022-10-22T21:08:59.028Z,99832.84
2022-10-22T21:11:29.224Z,99833.19
2022-10-22T21:13:58.588Z,99839.91
2022-10-22T21:16:29.659Z,99832.88
2022-10-22T21:18:59.213Z,99836.56
2022-10-22T21:21:28.761Z,99833.06
2022-10-22T21:23:59.042Z,99825.69
2022-10-22T21:26:37.894Z,99830.91
2022-10-22T21:29:10.868Z,99825.41
2022-10-22T21:31:41.602Z,99827.38
2022-10-22T21:34:13.004Z,99818.88
2022-10-22T21:36:42.796Z,99820.56
2022-10-22T21:39:13.709Z,99817.03
2022-10-22T21:41:44.702Z,99804.38
2022-10-22T21:44:13.996Z,99804.69
2022-10-22T21:46:44.524Z,99808.06
2022-10-22T21:49:14.521Z,99809.13
2022-10-22T21:51:44.872Z,99814.59
2022-10-22T21:54:16.121Z,99804.09
2022-10-22T21:56:46.204Z,99806.38
2022-10-22T21:59:15.384Z,99801.31
2022-10-22T22:01:46.382Z,99797.81
2022-10-22T22:04:15.547Z,99793.53
2022-10-22T22:06:45.134Z,99789.75
2022-10-22T22:09:14.647Z,99788.38
2022-10-22T22:11:44.996Z,99782.59
2022-10-22T22:14:15.120Z,99784.25
2022-10-22T22:16:45.692Z,99781.63
2022-10-22T22:19:15.921Z,99777.72
2022-10-22T22:21:45.180Z,99772.84
2022-10-22T22:24:14.989Z,99772.97
2022-10-22T22:26:44.028Z,99768.56
2022-10-22T22:29:13.583Z,99773.75
2022-10-22T22:31:43.637Z,99779.50
2022-10-22T22:34:17.585Z,99773.44
2022-10-22T22:36:49.607Z,99760.94
2022-10-22T22:39:20.955Z,99761.81
2022-10-22T22:41:50.296Z,99765.13
2022-10-22T22:44:20.087Z,99761.75
2022-10-22T22:46:49.237Z,99761.19
2022-10-22T22:49:20.188Z,99764.34
2022-10-22T22:51:50.834Z,99763.78
2022-10-22T22:54:19.856Z,99756.41
2022-10-22T22:56:51.556Z,99760.97
2022-10-22T22:59:20.767Z,99758.94
2022-10-22T23:01:51.125Z,99749.72
2022-10-22T23:04:25.313Z,99751.28
2022-10-22T23:06:55.397Z,99743.19
2022-10-22T23:09:25.303Z,99741.34
2022-10-22T23:11:54.549Z,99740.59
2022-10-22T23:14:23.621Z,99737.09
2022-10-22T23:16:53.928Z,99736.59
2022-10-22T23:19:24.715Z,99730.25
2022-10-22T23:21:54.921Z,99730.13
2022-10-22T23:24:26.376Z,99720.34
2022-10-22T23:26:59.510Z,99720.09
2022-10-22T23:29:30.530Z,99718.22
2022-10-22T23:32:01.940Z,99716.09
2022-10-22T23:34:33.062Z,99715.06
2022-10-22T23:37:02.186Z,99711.22
2022-10-22T23:39:31.405Z,99714.44
2022-10-22T23:42:00.674Z,99709.41
2022-10-22T23:44:29.805Z,99705.41
2022-10-22T23:46:58.800Z,99708.13
2022-10-22T23:49:27.807Z,99702.81
2022-10-22T23:51:59.590Z,99699.59
2022-10-22T23:54:28.697Z,99705.09
2022-10-22T23:56:57.835Z,99697.06
2022-10-22T23:59:27.588Z,99694.66
